createdAt,value
2023-04-18T00:00:39.122Z,16.00
2023-04-18T00:10:52.827Z,12.60
2023-04-18T00:15:55.366Z,13.50
2023-04-18T00:20:57.901Z,15.50
2023-04-18T00:26:00.983Z,12.60
2023-04-18T00:31:03.627Z,14.70
2023-04-18T00:36:06.550Z,12.30
2023-04-18T00:41:09.567Z,13.30
2023-04-18T00:46:12.073Z,15.90
2023-04-18T00:51:15.370Z,13.20
2023-04-18T00:56:17.955Z,12.90
2023-04-18T01:01:20.514Z,14.80
2023-04-18T01:06:23.640Z,16.00
2023-04-18T01:11:26.136Z,19.30
2023-04-18T01:16:29.750Z,16.30
2023-04-18T01:21:36.031Z,16.40
2023-04-18T01:26:38.655Z,13.90
2023-04-18T01:31:41.341Z,15.20
2023-04-18T01:36:44.224Z,13.80
2023-04-18T01:41:47.036Z,14.60
2023-04-18T01:46:49.545Z,14.00
2023-04-18T01:51:52.134Z,12.70
2023-04-18T01:56:54.599Z,13.80
2023-04-18T02:01:58.047Z,16.70
2023-04-18T02:07:00.683Z,13.80
2023-04-18T02:12:03.281Z,14.70
2023-04-18T02:17:05.901Z,14.10
2023-04-18T02:22:08.419Z,11.50
2023-04-18T02:27:11.754Z,14.50
2023-04-18T02:32:17.225Z,12.20
2023-04-18T02:37:19.701Z,12.90
2023-04-18T02:42:22.179Z,12.30
2023-04-18T02:47:25.915Z,10.40
2023-04-18T02:52:29.133Z,11.30
2023-04-18T02:57:31.603Z,13.30
2023-04-18T03:02:34.345Z,12.60
2023-04-18T03:07:37.014Z,12.40
2023-04-18T03:12:39.752Z,12.90
2023-04-18T03:17:42.360Z,14.00
2023-04-18T03:22:44.913Z,13.20
2023-04-18T03:27:47.661Z,11.70
2023-04-18T03:32:50.158Z,11.40
2023-04-18T03:37:52.640Z,15.00
2023-04-18T03:42:55.119Z,12.80
2023-04-18T03:47:57.667Z,12.40
2023-04-18T03:53:00.862Z,14.80
2023-04-18T03:58:03.408Z,15.90
2023-04-18T04:03:07.148Z,14.90
2023-04-18T04:08:09.874Z,12.70
2023-04-18T04:13:12.338Z,12.20
2023-04-18T04:18:14.796Z,12.80
2023-04-18T04:23:17.268Z,13.20
2023-04-18T04:28:24.512Z,16.90
2023-04-18T04:33:33.097Z,12.20
2023-04-18T04:38:38.324Z,13.10
2023-04-18T04:43:41.206Z,11.80
2023-04-18T04:48:43.832Z,12.60
2023-04-18T04:53:46.811Z,13.20
2023-04-18T04:58:50.012Z,12.40
2023-04-18T05:03:53.282Z,12.50
2023-04-18T05:08:57.432Z,13.40
2023-04-18T05:13:59.860Z,13.20
2023-04-18T05:19:02.305Z,14.50
2023-04-18T05:24:04.840Z,12.50
2023-04-18T05:29:07.294Z,14.40
2023-04-18T05:34:09.850Z,17.60
2023-04-18T05:39:12.337Z,13.70
2023-04-18T05:44:16.067Z,12.40
2023-04-18T05:49:19.319Z,13.10
2023-04-18T05:54:22.063Z,12.70
2023-04-18T05:59:26.646Z,12.30
2023-04-18T06:04:29.995Z,13.60
2023-04-18T06:09:32.620Z,12.70
2023-04-18T06:14:35.317Z,11.60
2023-04-18T06:19:38.406Z,11.60
2023-04-18T06:24:41.160Z,11.40
2023-04-18T06:29:43.824Z,11.00
2023-04-18T06:34:46.345Z,10.40
2023-04-18T06:39:48.915Z,10.60
2023-04-18T06:44:51.479Z,9.20
2023-04-18T06:49:54.019Z,10.20
2023-04-18T06:54:56.694Z,10.70
2023-04-18T06:59:59.168Z,8.80
2023-04-18T07:05:01.847Z,6.60
2023-04-18T07:10:06.456Z,6.70
2023-04-18T07:15:09.723Z,6.50
2023-04-18T07:20:14.331Z,7.40
2023-04-18T07:25:17.050Z,5.90
2023-04-18T07:30:19.562Z,6.20
2023-04-18T07:35:22.132Z,6.10
2023-04-18T07:40:25.288Z,5.80
2023-04-18T07:45:27.759Z,6.70
2023-04-18T07:50:30.499Z,7.80
2023-04-18T07:55:33.159Z,7.30
2023-04-18T08:00:39.213Z,7.50
2023-04-18T08:05:42.843Z,6.50
2023-04-18T08:10:45.939Z,6.60
2023-04-18T08:15:48.558Z,7.10
2023-04-18T08:20:51.021Z,7.60
2023-04-18T08:25:53.474Z,6.80
2023-04-18T08:30:56.546Z,11.50
2023-04-18T08:35:59.150Z,5.00
2023-04-18T08:41:01.724Z,6.50
2023-04-18T08:46:04.671Z,5.70
2023-04-18T08:51:07.262Z,5.30
2023-04-18T08:56:10.694Z,5.70
2023-04-18T09:01:13.677Z,5.10
2023-04-18T09:06:19.164Z,5.00
2023-04-18T09:11:28.807Z,5.00
2023-04-18T09:16:47.073Z,5.00
2023-04-18T09:22:00.846Z,6.50
2023-04-18T10:01:30.863Z,5.10
2023-04-18T10:06:35.016Z,5.00
2023-04-18T10:11:37.989Z,6.50
2023-04-18T10:16:42.423Z,6.90
2023-04-18T10:21:54.366Z,5.80
2023-04-18T10:26:57.837Z,4.70
2023-04-18T10:32:06.047Z,6.50
2023-04-18T10:37:08.663Z,8.00
2023-04-18T10:42:11.172Z,5.90
2023-04-18T10:47:16.659Z,5.60
2023-04-18T10:52:19.229Z,4.30
2023-04-18T10:57:21.916Z,8.30
2023-04-18T11:02:33.315Z,4.50
2023-04-18T11:07:44.999Z,4.60
2023-04-18T11:12:47.970Z,4.50
2023-04-18T11:18:06.683Z,4.90
2023-04-18T11:23:18.104Z,4.80
2023-04-18T11:28:21.947Z,5.20
2023-04-18T11:33:28.218Z,5.60
2023-04-18T11:38:31.042Z,4.80
2023-04-18T11:43:33.593Z,6.40
2023-04-18T11:48:40.536Z,5.40
2023-04-18T11:53:42.978Z,6.10
2023-04-18T11:58:45.502Z,6.60
2023-04-18T12:04:16.702Z,7.50
2023-04-18T12:09:22.240Z,5.60
2023-04-18T12:14:24.861Z,8.70
2023-04-18T12:19:27.998Z,12.40
2023-04-18T12:24:32.282Z,5.30
2023-04-18T12:29:35.151Z,5.50
2023-04-18T12:34:37.628Z,5.70
2023-04-18T12:39:40.204Z,6.40
2023-04-18T12:44:42.717Z,7.10
2023-04-18T12:49:45.381Z,6.90
2023-04-18T12:54:47.903Z,5.80
2023-04-18T12:59:50.469Z,6.80
2023-04-18T13:04:52.979Z,5.40
2023-04-18T13:09:55.776Z,5.60
2023-04-18T13:14:59.513Z,5.90
2023-04-18T13:20:04.792Z,5.60
2023-04-18T13:25:10.307Z,8.90
2023-04-18T13:30:13.352Z,5.80
2023-04-18T13:35:16.243Z,5.40
2023-04-18T13:40:18.813Z,6.00
2023-04-18T13:45:21.916Z,6.00
2023-04-18T13:50:25.588Z,7.30
2023-04-18T13:55:28.836Z,7.50
2023-04-18T14:00:31.720Z,9.10
2023-04-18T14:05:35.428Z,9.90
2023-04-18T14:10:40.315Z,8.60
2023-04-18T14:15:43.425Z,7.30
2023-04-18T14:20:46.978Z,8.80
2023-04-18T14:25:49.545Z,7.50
2023-04-18T14:30:55.205Z,8.80
2023-04-18T14:35:57.749Z,7.60
2023-04-18T14:41:01.151Z,6.30
2023-04-18T14:46:03.718Z,8.00
2023-04-18T14:51:07.979Z,6.60
2023-04-18T14:56:10.528Z,7.80
2023-04-18T15:01:17.052Z,7.40
2023-04-18T15:06:19.624Z,7.40
2023-04-18T15:11:23.110Z,6.30
2023-04-18T15:16:26.547Z,6.40
2023-04-18T15:21:29.168Z,6.20
2023-04-18T15:26:33.261Z,8.20
2023-04-18T15:31:38.425Z,10.20
2023-04-18T15:36:41.650Z,9.30
2023-04-18T15:41:44.669Z,9.00
2023-04-18T15:46:48.953Z,8.10
2023-04-18T15:51:51.530Z,10.10
2023-04-18T15:56:54.000Z,9.20
2023-04-18T16:01:56.875Z,10.20
2023-04-18T16:06:59.610Z,9.30
2023-04-18T16:12:03.206Z,9.90
2023-04-18T16:17:05.961Z,9.80
2023-04-18T16:22:10.446Z,12.60
2023-04-18T16:27:13.118Z,10.50
2023-04-18T16:32:15.726Z,10.70
2023-04-18T16:37:18.495Z,9.70
2023-04-18T16:42:21.426Z,15.40
2023-04-18T16:47:24.306Z,11.30
2023-04-18T16:52:26.866Z,13.10
2023-04-18T16:57:29.433Z,10.70
2023-04-18T17:02:33.392Z,11.00
2023-04-18T17:07:36.755Z,11.30
2023-04-18T17:12:39.344Z,11.90
2023-04-18T17:17:42.071Z,9.70
2023-04-18T17:22:53.235Z,11.70
2023-04-18T17:27:57.213Z,11.20
2023-04-18T17:32:59.810Z,9.80
2023-04-18T17:38:02.574Z,12.10
2023-04-18T17:43:07.698Z,10.20
2023-04-18T17:48:10.439Z,10.60
2023-04-18T17:53:13.391Z,11.40
2023-04-18T17:58:16.860Z,11.30
2023-04-18T18:03:20.084Z,12.50
2023-04-18T18:08:23.083Z,8.40
2023-04-18T18:13:25.712Z,9.00
2023-04-18T18:18:31.463Z,10.60
2023-04-18T18:23:34.828Z,12.80
2023-04-18T18:28:38.195Z,10.60
2023-04-18T18:33:43.997Z,9.60
2023-04-18T18:38:47.119Z,12.90
2023-04-18T18:43:50.573Z,12.60
2023-04-18T18:48:53.385Z,12.00
2023-04-18T18:53:57.072Z,11.20
2023-04-18T18:58:59.551Z,10.60
2023-04-18T19:04:03.649Z,11.10
2023-04-18T19:09:07.047Z,9.50
2023-04-18T19:14:10.411Z,9.50
2023-04-18T19:19:13.593Z,10.20
2023-04-18T19:24:17.269Z,9.40
2023-04-18T19:29:22.320Z,8.10
2023-04-18T19:34:25.226Z,11.40
2023-04-18T19:39:28.079Z,11.40
2023-04-18T19:44:31.202Z,8.90
2023-04-18T19:49:34.019Z,10.90
2023-04-18T19:54:36.746Z,7.60
2023-04-18T19:59:39.223Z,8.80
2023-04-18T20:04:43.872Z,9.80
2023-04-18T20:09:48.826Z,9.60
2023-04-18T20:14:52.229Z,9.60
2023-04-18T20:19:57.074Z,8.40
2023-04-18T20:25:00.901Z,9.70
2023-04-18T20:30:05.011Z,8.60
2023-04-18T20:35:08.550Z,10.20
2023-04-18T20:40:11.500Z,7.30
2023-04-18T20:45:14.090Z,9.40
2023-04-18T20:50:18.222Z,7.30
2023-04-18T20:55:21.286Z,8.00
2023-04-18T21:00:24.095Z,10.70
2023-04-18T21:05:26.660Z,11.00
2023-04-18T21:10:29.223Z,7.80
2023-04-18T21:15:32.411Z,7.30
2023-04-18T21:20:36.539Z,7.30
2023-04-18T21:25:39.048Z,7.10
2023-04-18T21:30:41.619Z,7.20
2023-04-18T21:35:44.148Z,6.80
2023-04-18T21:40:46.618Z,8.00
2023-04-18T21:45:49.101Z,6.80
2023-04-18T21:50:57.636Z,5.90
2023-04-18T21:56:00.820Z,5.40
2023-04-18T22:01:03.513Z,6.70
2023-04-18T22:06:06.235Z,5.70
2023-04-18T22:11:12.332Z,6.30
2023-04-18T22:16:15.232Z,7.40
2023-04-18T22:21:17.835Z,7.30
2023-04-18T22:26:20.610Z,7.30
2023-04-18T22:31:23.222Z,5.50
2023-04-18T22:36:27.463Z,8.20
2023-04-18T22:41:29.973Z,9.60
2023-04-18T22:46:33.006Z,9.90
2023-04-18T22:51:35.605Z,7.00
2023-04-18T22:56:38.081Z,7.80
2023-04-18T23:01:41.350Z,6.20
2023-04-18T23:06:44.303Z,6.60
2023-04-18T23:11:46.779Z,4.10
2023-04-18T23:16:49.464Z,6.50
2023-04-18T23:21:52.882Z,6.30
2023-04-18T23:26:55.373Z,5.20
2023-04-18T23:31:57.993Z,7.30
2023-04-18T23:37:00.807Z,9.10
2023-04-18T23:42:03.307Z,6.70
2023-04-18T23:47:06.235Z,7.60
2023-04-18T23:52:08.779Z,5.90
2023-04-18T23:57:11.232Z,5.70
